Time;durP1;ratioP1;P1;durP2;ratioP2;P2;SDS_P1;SDS_P2;PMS_P1;PMS_P2;Temp;Humidity;BMP_temperature;BMP_pressure;BME280_temperature;BME280_humidity;BME280_pressure;Samples;Min_cycle;Max_cycle;Signal;HPM_P1;HPM_P2
2023/04/25 00:02:10;;;;;;;16.30;4.05;;;6.20;99.90;;;;;;5036286;28;20400;-36
2023/04/25 00:04:37;;;;;;;20.30;4.22;;;6.10;99.90;;;;;;5051771;28;20130;-38
2023/04/25 00:07:03;;;;;;;17.38;5.32;;;6.10;99.90;;;;;;5026585;28;20049;-43
2023/04/25 00:09:29;;;;;;;20.55;4.88;;;6.00;99.90;;;;;;5033156;28;20049;-36
2023/04/25 00:11:55;;;;;;;23.88;6.03;;;6.00;99.90;;;;;;5034518;28;20878;-37
2023/04/25 00:14:21;;;;;;;20.98;5.95;;;5.90;99.90;;;;;;5036584;28;20084;-37
2023/04/25 00:16:48;;;;;;;20.60;5.30;;;5.90;99.90;;;;;;5026005;28;20532;-36
2023/04/25 00:19:13;;;;;;;18.73;4.55;;;5.80;99.90;;;;;;5033014;28;20049;-41
2023/04/25 00:21:40;;;;;;;18.98;4.55;;;5.80;99.90;;;;;;5050414;28;20041;-42
2023/04/25 00:24:07;;;;;;;23.45;4.80;;;5.80;99.90;;;;;;5035391;28;20387;-37
2023/04/25 00:26:35;;;;;;;15.90;4.03;;;5.80;99.90;;;;;;5034858;28;20046;-43
2023/04/25 00:29:00;;;;;;;18.88;4.82;;;5.80;99.90;;;;;;5033155;28;20105;-37
2023/04/25 00:31:26;;;;;;;14.85;4.13;;;5.80;99.90;;;;;;5027402;28;20045;-43
2023/04/25 00:33:53;;;;;;;20.85;5.50;;;5.80;99.90;;;;;;5036646;28;20119;-42
2023/04/25 00:36:18;;;;;;;18.42;5.22;;;5.90;99.90;;;;;;5036208;28;20605;-40
2023/04/25 00:38:44;;;;;;;19.00;5.45;;;5.90;99.90;;;;;;5035489;28;20053;-40
2023/04/25 00:41:10;;;;;;;21.50;5.70;;;5.90;99.90;;;;;;5035623;28;20053;-38
2023/04/25 00:43:37;;;;;;;18.08;5.47;;;6.00;99.90;;;;;;5036034;28;20417;-36
2023/04/25 00:46:03;;;;;;;20.25;5.25;;;6.00;99.90;;;;;;5036233;28;20471;-41
2023/04/25 00:48:28;;;;;;;23.17;5.22;;;6.10;99.90;;;;;;5034931;28;20506;-37
2023/04/25 00:50:57;;;;;;;22.58;5.60;;;6.10;99.90;;;;;;5035515;28;20045;-45
2023/04/25 00:53:25;;;;;;;21.00;4.80;;;6.10;99.90;;;;;;5036003;28;20041;-39
2023/04/25 00:55:52;;;;;;;20.45;4.78;;;6.20;99.90;;;;;;5035815;28;20044;-42
2023/04/25 00:58:18;;;;;;;16.58;4.45;;;6.20;99.90;;;;;;5035909;28;20119;-42
2023/04/25 01:00:47;;;;;;;27.60;7.22;;;6.20;99.90;;;;;;5051773;28;20282;-40
2023/04/25 01:03:13;;;;;;;15.52;5.00;;;6.20;99.90;;;;;;5034036;28;20049;-43
2023/04/25 01:05:41;;;;;;;18.23;4.85;;;6.20;99.90;;;;;;5050184;28;20451;-36
2023/04/25 01:08:07;;;;;;;18.27;4.40;;;6.20;99.90;;;;;;5035297;28;20052;-35
2023/04/25 01:10:32;;;;;;;16.55;5.53;;;6.30;99.90;;;;;;5036043;28;20485;-44
2023/04/25 01:12:58;;;;;;;17.73;4.40;;;6.30;99.90;;;;;;5034827;28;20437;-40
2023/04/25 01:15:24;;;;;;;16.70;4.43;;;6.30;99.90;;;;;;5035460;28;20827;-35
2023/04/25 01:17:50;;;;;;;16.27;4.40;;;6.30;99.90;;;;;;5027845;28;20083;-43
2023/04/25 01:20:16;;;;;;;18.27;4.38;;;6.30;99.90;;;;;;5028195;28;20048;-41
2023/04/25 01:22:43;;;;;;;18.80;4.07;;;6.30;99.90;;;;;;5021549;28;20095;-36
2023/04/25 01:25:10;;;;;;;15.55;5.20;;;6.30;99.90;;;;;;5034998;28;20052;-41
2023/04/25 01:27:36;;;;;;;17.30;4.15;;;6.20;99.90;;;;;;5020734;28;20041;-43
2023/04/25 01:30:03;;;;;;;18.98;4.68;;;6.20;99.90;;;;;;5021687;28;20236;-47
2023/04/25 01:32:37;;;;;;;17.42;4.07;;;6.20;99.90;;;;;;5034689;28;20782;-42
2023/04/25 01:35:09;;;;;;;15.32;3.83;;;6.20;99.90;;;;;;5022412;28;20044;-45
2023/04/25 01:37:36;;;;;;;16.35;3.22;;;6.20;99.90;;;;;;5035093;28;20392;-42
2023/04/25 01:40:02;;;;;;;13.20;3.20;;;6.20;99.90;;;;;;5018949;28;20120;-36
2023/04/25 01:42:27;;;;;;;16.95;4.22;;;6.20;99.90;;;;;;5024576;28;20077;-39
2023/04/25 01:44:53;;;;;;;20.50;4.50;;;6.20;99.90;;;;;;5050286;28;20190;-41
2023/04/25 01:47:19;;;;;;;12.13;2.95;;;6.20;99.90;;;;;;5034279;28;20491;-38
2023/04/25 01:49:44;;;;;;;13.68;3.80;;;6.10;99.90;;;;;;5032324;28;20095;-42
2023/04/25 01:52:10;;;;;;;16.23;3.90;;;6.20;99.90;;;;;;5026830;28;20458;-37
2023/04/25 01:54:36;;;;;;;11.98;3.20;;;6.20;99.90;;;;;;5050034;28;20458;-40
2023/04/25 01:57:01;;;;;;;21.75;3.90;;;6.10;99.90;;;;;;5034749;28;20082;-38
2023/04/25 01:59:27;;;;;;;21.40;3.53;;;6.10;99.90;;;;;;5026585;28;20037;-39
2023/04/25 02:01:53;;;;;;;15.93;3.70;;;6.10;99.90;;;;;;5032813;28;20045;-41
2023/04/25 02:04:18;;;;;;;15.93;3.75;;;6.10;99.90;;;;;;5034863;28;20052;-42
2023/04/25 02:06:44;;;;;;;14.48;4.10;;;6.10;99.90;;;;;;5035234;28;20123;-45
2023/04/25 02:09:09;;;;;;;17.42;3.25;;;6.10;99.90;;;;;;5034492;28;20392;-43
2023/04/25 02:11:35;;;;;;;21.67;3.42;;;6.10;99.90;;;;;;5034284;28;20483;-43
2023/04/25 02:14:01;;;;;;;12.10;3.45;;;6.00;99.90;;;;;;5034284;28;20479;-37
2023/04/25 02:16:26;;;;;;;19.17;3.35;;;6.00;99.90;;;;;;5049048;28;20051;-39
2023/04/25 02:18:52;;;;;;;16.80;2.85;;;6.00;99.90;;;;;;5034207;28;20052;-41
2023/04/25 02:21:18;;;;;;;16.08;2.97;;;5.90;99.90;;;;;;5034014;28;20041;-39
2023/04/25 02:23:47;;;;;;;13.15;3.10;;;5.90;99.90;;;;;;5032850;28;20463;-38
2023/04/25 02:26:13;;;;;;;12.00;2.95;;;5.90;99.90;;;;;;5023709;28;20059;-39
2023/04/25 02:28:38;;;;;;;11.25;3.35;;;5.90;99.90;;;;;;5023039;28;20041;-37
2023/04/25 02:31:04;;;;;;;13.38;2.75;;;5.90;99.90;;;;;;5027266;28;20095;-39
2023/04/25 02:33:30;;;;;;;11.13;3.40;;;5.80;99.90;;;;;;5038984;28;20048;-39
2023/04/25 02:35:55;;;;;;;9.77;2.40;;;5.80;99.90;;;;;;5039187;28;20526;-44
2023/04/25 02:38:21;;;;;;;11.45;2.78;;;5.70;99.90;;;;;;5038266;28;20220;-36
2023/04/25 02:40:47;;;;;;;11.73;2.30;;;5.70;99.90;;;;;;5038049;28;20520;-47
2023/04/25 02:43:12;;;;;;;10.73;2.30;;;5.70;99.90;;;;;;5035000;28;20056;-44
2023/04/25 02:45:38;;;;;;;7.40;2.58;;;5.70;99.90;;;;;;5027096;28;20076;-44
2023/04/25 02:48:04;;;;;;;8.95;2.35;;;5.70;99.90;;;;;;5037985;28;20041;-40
2023/04/25 02:50:30;;;;;;;8.43;2.25;;;5.70;99.90;;;;;;5044033;28;20052;-44
2023/04/25 02:52:58;;;;;;;8.10;1.90;;;5.70;99.90;;;;;;5036559;28;20040;-47
2023/04/25 02:55:24;;;;;;;8.93;1.85;;;5.70;99.90;;;;;;5038990;28;20620;-37
2023/04/25 02:57:50;;;;;;;6.97;2.25;;;5.70;99.90;;;;;;5037463;28;20043;-41
2023/04/25 03:00:16;;;;;;;7.30;2.00;;;5.60;99.90;;;;;;5037913;28;20049;-36
2023/04/25 03:02:41;;;;;;;8.98;1.92;;;5.70;99.90;;;;;;5036208;28;20049;-35
2023/04/25 03:05:07;;;;;;;9.48;2.22;;;5.60;99.90;;;;;;5017981;28;20441;-36
2023/04/25 03:07:32;;;;;;;13.05;3.40;;;5.60;99.90;;;;;;5032252;28;20045;-40
2023/04/25 03:09:58;;;;;;;12.35;1.98;;;5.60;99.90;;;;;;5038328;28;20041;-41
2023/04/25 03:12:24;;;;;;;10.70;2.25;;;5.60;99.90;;;;;;5037001;28;20113;-41
2023/04/25 03:14:50;;;;;;;7.45;2.38;;;5.60;99.90;;;;;;5037526;28;20368;-44
2023/04/25 03:17:15;;;;;;;7.50;2.00;;;5.60;99.90;;;;;;5037381;28;20502;-35
2023/04/25 03:19:41;;;;;;;7.53;2.97;;;5.60;99.90;;;;;;5052961;28;20135;-37
2023/04/25 03:22:07;;;;;;;14.60;2.78;;;5.50;99.90;;;;;;5035050;28;20057;-38
2023/04/25 03:24:32;;;;;;;10.20;2.35;;;5.50;99.90;;;;;;5038096;28;20047;-38
2023/04/25 03:26:58;;;;;;;13.63;2.55;;;5.40;99.90;;;;;;5036656;28;20091;-41
2023/04/25 03:29:26;;;;;;;10.57;2.47;;;5.40;99.90;;;;;;5051097;28;20064;-41
2023/04/25 03:31:51;;;;;;;11.32;2.47;;;5.40;99.90;;;;;;5037378;28;20379;-37
2023/04/25 03:34:17;;;;;;;11.77;2.88;;;5.40;99.90;;;;;;5037563;28;20056;-41
2023/04/25 03:36:43;;;;;;;10.00;2.83;;;5.50;99.90;;;;;;5036883;28;20496;-41
2023/04/25 03:39:08;;;;;;;8.07;2.35;;;5.50;99.90;;;;;;5036217;28;20110;-42
2023/04/25 03:41:34;;;;;;;15.65;3.65;;;5.50;99.90;;;;;;5036709;28;20390;-37
2023/04/25 03:44:00;;;;;;;10.18;2.00;;;5.40;99.90;;;;;;5028166;28;20045;-44
2023/04/25 03:46:25;;;;;;;10.80;2.67;;;5.40;99.90;;;;;;5032869;28;20041;-47
2023/04/25 03:48:51;;;;;;;9.73;2.33;;;5.50;99.90;;;;;;5052808;28;20052;-36
2023/04/25 03:51:17;;;;;;;10.40;2.65;;;5.50;99.90;;;;;;5036088;28;20041;-39
2023/04/25 03:53:42;;;;;;;14.00;2.55;;;5.50;99.90;;;;;;5036878;28;20048;-38
2023/04/25 03:56:09;;;;;;;10.93;2.30;;;5.50;99.90;;;;;;5037261;28;20349;-38
2023/04/25 03:58:35;;;;;;;10.50;2.60;;;5.50;99.90;;;;;;5034635;28;20084;-46
2023/04/25 04:01:02;;;;;;;12.68;3.03;;;5.50;99.90;;;;;;5029452;28;20128;-44
2023/04/25 04:03:31;;;;;;;15.20;3.22;;;5.50;99.90;;;;;;5035978;28;20052;-40
2023/04/25 04:05:57;;;;;;;14.70;2.63;;;5.50;99.90;;;;;;5039169;28;20373;-37
2023/04/25 04:08:22;;;;;;;17.00;3.45;;;5.40;99.90;;;;;;5036420;28;20550;-39
2023/04/25 04:10:48;;;;;;;8.85;2.40;;;5.50;99.90;;;;;;5035971;28;20052;-39
2023/04/25 04:13:14;;;;;;;13.93;2.58;;;5.50;99.90;;;;;;5036073;28;20055;-39
2023/04/25 04:15:39;;;;;;;18.33;3.00;;;5.50;99.90;;;;;;5036411;28;20057;-40
2023/04/25 04:18:06;;;;;;;12.43;2.30;;;5.50;99.90;;;;;;5028038;28;20041;-43
2023/04/25 04:20:31;;;;;;;12.70;2.85;;;5.50;99.90;;;;;;5032339;28;20119;-40
2023/04/25 04:22:57;;;;;;;12.13;3.13;;;5.50;99.90;;;;;;5036193;28;20825;-38
2023/04/25 04:25:24;;;;;;;12.80;3.22;;;5.50;99.90;;;;;;5034968;28;20502;-40
2023/04/25 04:27:54;;;;;;;11.00;2.42;;;5.50;99.90;;;;;;5024781;28;20044;-41
2023/04/25 04:30:29;;;;;;;13.07;2.50;;;5.50;99.90;;;;;;5051486;28;20420;-39
2023/04/25 04:32:56;;;;;;;12.70;3.08;;;5.50;99.90;;;;;;5036708;28;20130;-40
2023/04/25 04:35:23;;;;;;;10.38;3.17;;;5.50;99.90;;;;;;5035723;28;20551;-42
2023/04/25 04:37:49;;;;;;;10.52;2.40;;;5.50;99.90;;;;;;5033964;28;20486;-37
2023/04/25 04:40:15;;;;;;;15.07;2.63;;;5.40;99.90;;;;;;5031387;28;20557;-40
2023/04/25 04:42:42;;;;;;;13.02;2.92;;;5.40;99.90;;;;;;5026743;28;20098;-41
2023/04/25 04:45:09;;;;;;;13.25;2.45;;;5.40;99.90;;;;;;5018138;28;20052;-38
2023/04/25 04:47:36;;;;;;;11.38;2.53;;;5.40;99.90;;;;;;5027770;28;20424;-42
2023/04/25 04:50:03;;;;;;;15.93;3.13;;;5.40;99.90;;;;;;5035038;28;20048;-39
2023/04/25 04:52:30;;;;;;;12.60;2.10;;;5.60;99.90;;;;;;5035297;28;20512;-37
2023/04/25 04:54:58;;;;;;;10.63;2.53;;;5.70;99.90;;;;;;5035886;28;20053;-47
2023/04/25 04:57:24;;;;;;;9.45;2.67;;;5.80;99.90;;;;;;5024451;28;20037;-39
2023/04/25 04:59:50;;;;;;;12.07;2.45;;;5.90;99.90;;;;;;5025827;28;20044;-45
2023/04/25 05:02:15;;;;;;;12.75;3.72;;;5.90;99.90;;;;;;5033921;28;20516;-45
2023/04/25 05:04:41;;;;;;;11.82;3.15;;;5.90;99.90;;;;;;5021922;28;20102;-39
2023/04/25 05:07:07;;;;;;;10.73;3.17;;;5.90;99.90;;;;;;5035404;28;20470;-36
2023/04/25 05:09:32;;;;;;;10.38;2.95;;;5.80;99.90;;;;;;5030840;28;20095;-40
2023/04/25 05:11:58;;;;;;;8.73;2.03;;;5.80;99.90;;;;;;5026686;28;20049;-42
2023/04/25 05:14:24;;;;;;;8.23;2.30;;;5.70;99.90;;;;;;5022321;28;20132;-45
2023/04/25 05:16:49;;;;;;;10.95;2.22;;;5.70;99.90;;;;;;5034731;28;20048;-41
2023/04/25 05:19:15;;;;;;;10.95;2.20;;;5.70;99.90;;;;;;5035426;28;20244;-39
2023/04/25 05:21:41;;;;;;;9.60;2.00;;;5.70;99.90;;;;;;5032593;28;20080;-38
2023/04/25 05:24:06;;;;;;;7.25;2.10;;;5.80;99.90;;;;;;5030025;28;20072;-41
2023/04/25 05:26:32;;;;;;;11.73;2.60;;;5.80;99.90;;;;;;5030536;28;20510;-36
2023/04/25 05:28:58;;;;;;;10.00;1.95;;;5.80;99.90;;;;;;5017499;28;20470;-40
2023/04/25 05:31:24;;;;;;;10.43;2.13;;;5.80;99.90;;;;;;5025987;28;20427;-37
2023/04/25 05:33:49;;;;;;;12.38;2.22;;;5.90;99.90;;;;;;5034833;28;20044;-46
2023/04/25 05:36:15;;;;;;;11.50;2.83;;;5.90;99.90;;;;;;5035730;28;20177;-39
2023/04/25 05:38:41;;;;;;;8.57;2.13;;;6.00;99.90;;;;;;5032334;28;20126;-36
2023/04/25 05:41:07;;;;;;;8.63;2.13;;;6.00;99.90;;;;;;5034519;28;20075;-40
2023/04/25 05:43:33;;;;;;;12.13;3.13;;;6.10;99.90;;;;;;5034990;28;20128;-41
2023/04/25 05:45:58;;;;;;;12.27;2.25;;;6.10;99.90;;;;;;5034379;28;20097;-37
2023/04/25 05:48:24;;;;;;;10.82;2.55;;;6.10;99.90;;;;;;5034877;28;20041;-40
2023/04/25 05:50:51;;;;;;;9.88;2.13;;;6.20;99.90;;;;;;5032509;28;20048;-41
2023/04/25 05:53:17;;;;;;;7.13;2.35;;;6.20;99.90;;;;;;5034174;28;20052;-44
2023/04/25 05:55:43;;;;;;;9.32;1.92;;;7.20;99.90;;;;;;5035090;28;20099;-40
2023/04/25 05:58:09;;;;;;;13.98;2.83;;;9.10;99.90;;;;;;5033041;28;20660;-40
2023/04/25 06:00:34;;;;;;;10.85;3.03;;;11.00;99.90;;;;;;5027047;28;20044;-42
2023/04/25 06:03:00;;;;;;;8.18;2.20;;;12.40;99.90;;;;;;5032032;28;20162;-46
2023/04/25 06:05:26;;;;;;;7.78;1.98;;;13.80;99.90;;;;;;5037304;28;20052;-40
2023/04/25 06:07:52;;;;;;;6.45;1.92;;;15.00;99.90;;;;;;5036031;28;20037;-43
2023/04/25 06:10:18;;;;;;;10.20;2.70;;;16.00;99.90;;;;;;5035492;28;20056;-40
2023/04/25 06:12:44;;;;;;;10.63;2.83;;;16.10;99.90;;;;;;5021705;28;20052;-40
2023/04/25 06:15:10;;;;;;;9.77;2.30;;;15.20;99.90;;;;;;5036589;28;20052;-40
2023/04/25 06:17:35;;;;;;;8.65;2.20;;;13.80;99.90;;;;;;5036530;28;20128;-43
2023/04/25 06:20:03;;;;;;;10.35;2.40;;;12.70;99.90;;;;;;5036671;28;20071;-37
2023/04/25 06:22:28;;;;;;;9.93;2.20;;;11.70;99.90;;;;;;5035039;28;20088;-37
2023/04/25 06:24:57;;;;;;;7.43;1.70;;;11.10;99.90;;;;;;5035880;28;20323;-45
2023/04/25 06:27:22;;;;;;;12.07;2.40;;;10.70;99.90;;;;;;5026843;28;20131;-45
2023/04/25 06:29:48;;;;;;;14.48;2.30;;;10.50;99.90;;;;;;5035994;28;20037;-43
2023/04/25 06:32:14;;;;;;;9.45;2.53;;;10.10;99.90;;;;;;5034883;28;20049;-40
2023/04/25 06:34:39;;;;;;;9.27;2.60;;;9.80;99.90;;;;;;5037417;28;20133;-40
2023/04/25 06:37:05;;;;;;;8.68;2.17;;;9.90;99.90;;;;;;5034299;28;20036;-42
2023/04/25 06:39:31;;;;;;;8.07;1.92;;;10.00;99.90;;;;;;5037562;28;20045;-44
2023/04/25 06:41:56;;;;;;;6.88;2.00;;;10.60;99.90;;;;;;5034824;28;20045;-44
2023/04/25 06:44:23;;;;;;;7.68;2.30;;;11.20;99.90;;;;;;5038049;28;20044;-37
2023/04/25 06:46:49;;;;;;;6.38;1.92;;;12.40;99.90;;;;;;5030081;28;20120;-42
2023/04/25 06:49:15;;;;;;;8.70;1.88;;;13.90;99.90;;;;;;5026615;28;20067;-39
2023/04/25 06:51:41;;;;;;;8.45;2.10;;;15.30;99.90;;;;;;5026726;28;20078;-43
2023/04/25 06:54:06;;;;;;;6.85;1.60;;;16.50;99.90;;;;;;5038479;28;20045;-43
2023/04/25 06:56:32;;;;;;;8.27;2.10;;;16.80;99.90;;;;;;5039807;28;20060;-38
2023/04/25 06:59:00;;;;;;;8.50;1.73;;;15.90;99.90;;;;;;5032819;28;20870;-40
2023/04/25 07:01:26;;;;;;;6.95;1.70;;;15.50;99.90;;;;;;5031562;28;20037;-43
2023/04/25 07:03:51;;;;;;;5.78;2.10;;;14.90;99.90;;;;;;5033476;28;20064;-45
2023/04/25 07:06:17;;;;;;;7.50;2.00;;;14.30;99.90;;;;;;5035834;28;20949;-41
2023/04/25 07:08:43;;;;;;;7.25;1.70;;;13.70;99.90;;;;;;5037603;28;20041;-42
2023/04/25 07:11:08;;;;;;;10.50;1.75;;;13.60;99.90;;;;;;5036899;28;20067;-43
2023/04/25 07:13:34;;;;;;;5.22;1.83;;;13.90;99.90;;;;;;5036990;28;20121;-42
2023/04/25 07:16:00;;;;;;;9.18;1.95;;;14.00;99.90;;;;;;5022358;28;20136;-45
2023/04/25 07:18:26;;;;;;;7.45;1.58;;;14.00;99.90;;;;;;5037134;28;20048;-48
2023/04/25 07:20:52;;;;;;;8.70;1.77;;;14.20;99.90;;;;;;5037183;28;20048;-37
2023/04/25 07:23:17;;;;;;;9.65;1.77;;;13.90;99.90;;;;;;5052879;28;20550;-43
2023/04/25 07:25:43;;;;;;;6.45;2.17;;;13.00;99.90;;;;;;5035993;28;20174;-41
2023/04/25 07:28:09;;;;;;;11.65;2.35;;;11.30;99.90;;;;;;5037412;28;20044;-40
2023/04/25 07:30:34;;;;;;;8.30;2.08;;;10.40;99.90;;;;;;5026286;28;20049;-43
2023/04/25 07:33:00;;;;;;;9.48;2.42;;;9.40;99.90;;;;;;5037726;28;20120;-44
2023/04/25 07:35:26;;;;;;;9.38;2.03;;;8.90;99.90;;;;;;5032970;28;20388;-45
2023/04/25 07:37:51;;;;;;;9.27;2.25;;;8.60;99.90;;;;;;5028374;28;20038;-37
2023/04/25 07:40:17;;;;;;;6.60;1.92;;;8.50;99.90;;;;;;5036838;28;20049;-45
2023/04/25 07:42:43;;;;;;;10.05;2.20;;;8.60;99.90;;;;;;5037502;28;20562;-42
2023/04/25 07:45:09;;;;;;;8.10;1.85;;;8.80;99.90;;;;;;5024157;28;20057;-42
2023/04/25 07:47:35;;;;;;;7.25;1.52;;;9.00;99.90;;;;;;5037446;28;20471;-46
2023/04/25 07:50:02;;;;;;;10.00;2.10;;;9.20;99.90;;;;;;5037254;28;20045;-40
2023/04/25 07:52:28;;;;;;;5.35;1.48;;;9.40;99.90;;;;;;5051824;28;20053;-44
2023/04/25 07:54:54;;;;;;;7.93;2.03;;;9.70;99.90;;;;;;5037841;28;20150;-38
2023/04/25 07:57:20;;;;;;;7.03;1.50;;;10.00;99.90;;;;;;5037353;28;20285;-41
2023/04/25 07:59:46;;;;;;;5.47;1.48;;;10.20;99.90;;;;;;5028901;28;20107;-38
2023/04/25 08:02:11;;;;;;;5.38;1.35;;;10.40;99.90;;;;;;5037161;28;20059;-37
2023/04/25 08:04:37;;;;;;;9.43;1.90;;;10.40;99.90;;;;;;5036789;28;20048;-38
2023/04/25 08:07:03;;;;;;;7.70;1.90;;;10.40;99.90;;;;;;5036812;28;20049;-42
2023/04/25 08:09:33;;;;;;;7.47;2.03;;;10.30;99.90;;;;;;5036949;28;20045;-43
2023/04/25 08:12:00;;;;;;;11.48;2.08;;;10.50;99.90;;;;;;5036734;28;20049;-39
2023/04/25 08:14:26;;;;;;;10.40;2.30;;;10.90;99.90;;;;;;5035103;28;20119;-45
2023/04/25 08:16:51;;;;;;;6.47;1.67;;;11.00;99.90;;;;;;5036852;28;20044;-41
2023/04/25 08:19:17;;;;;;;8.25;2.00;;;11.00;99.90;;;;;;5035225;28;20095;-37
2023/04/25 08:21:43;;;;;;;9.48;2.15;;;11.00;99.90;;;;;;5035826;28;20041;-39
2023/04/25 08:24:08;;;;;;;4.78;1.27;;;11.00;99.90;;;;;;5036269;28;20037;-44
2023/04/25 08:26:37;;;;;;;5.53;1.50;;;10.90;99.90;;;;;;5047465;28;20060;-42
2023/04/25 08:29:02;;;;;;;7.35;1.50;;;10.90;99.90;;;;;;5028700;28;20821;-42
2023/04/25 08:31:28;;;;;;;5.88;1.50;;;11.10;99.90;;;;;;5027465;28;20047;-40
2023/04/25 08:33:54;;;;;;;6.05;1.90;;;11.00;99.90;;;;;;5033988;28;20461;-44
2023/04/25 08:36:19;;;;;;;9.13;1.80;;;10.90;99.90;;;;;;5039644;28;20658;-44
2023/04/25 08:38:45;;;;;;;11.77;2.00;;;11.00;99.90;;;;;;5033953;28;20337;-44
2023/04/25 08:41:12;;;;;;;9.88;1.90;;;11.30;99.90;;;;;;5036022;28;20063;-41
2023/04/25 08:43:41;;;;;;;7.70;1.95;;;11.50;99.90;;;;;;5029112;28;20053;-42
2023/04/25 08:46:08;;;;;;;6.65;2.03;;;11.50;99.90;;;;;;5031577;28;20518;-42
2023/04/25 08:48:34;;;;;;;12.90;2.10;;;11.60;99.90;;;;;;5034929;28;20068;-45
2023/04/25 08:51:02;;;;;;;11.55;1.92;;;11.70;99.90;;;;;;5033749;28;20677;-43
2023/04/25 08:53:30;;;;;;;10.70;2.20;;;11.90;99.90;;;;;;5035580;28;20072;-38
2023/04/25 08:55:57;;;;;;;8.50;2.13;;;12.00;99.90;;;;;;5035972;28;20052;-46
2023/04/25 08:58:23;;;;;;;8.95;2.13;;;12.30;99.90;;;;;;5033665;28;20403;-40
2023/04/25 09:00:50;;;;;;;14.18;2.40;;;12.50;99.90;;;;;;5028267;28;20045;-44
2023/04/25 09:03:17;;;;;;;10.95;2.03;;;12.50;99.90;;;;;;5034980;28;20466;-41
2023/04/25 09:05:43;;;;;;;8.80;2.15;;;12.60;99.90;;;;;;5034412;28;20566;-38
2023/04/25 09:08:10;;;;;;;8.32;2.40;;;12.80;99.90;;;;;;5028265;28;20140;-42
2023/04/25 09:10:36;;;;;;;9.15;1.92;;;12.90;99.90;;;;;;5028022;28;20057;-44
2023/04/25 09:13:08;;;;;;;8.93;2.38;;;12.50;99.90;;;;;;5033023;28;20041;-38
2023/04/25 09:15:53;;;;;;;11.05;2.38;;;12.60;99.90;;;;;;5032896;28;20232;-40
2023/04/25 09:18:29;;;;;;;9.88;2.28;;;12.40;99.90;;;;;;5032194;28;20056;-39
2023/04/25 09:21:06;;;;;;;8.10;2.22;;;12.00;99.90;;;;;;5035417;28;20846;-45
2023/04/25 09:23:40;;;;;;;10.90;2.55;;;11.50;99.90;;;;;;5034510;28;20049;-40
2023/04/25 09:26:07;;;;;;;6.10;2.00;;;11.10;99.90;;;;;;5035015;28;20120;-42
2023/04/25 09:28:34;;;;;;;6.72;1.60;;;10.90;99.90;;;;;;5034326;28;20496;-38
2023/04/25 09:31:01;;;;;;;7.68;1.85;;;10.50;99.90;;;;;;5025767;28;20045;-43
2023/04/25 09:33:32;;;;;;;8.48;1.98;;;10.30;99.90;;;;;;5030093;28;20041;-45
2023/04/25 09:36:07;;;;;;;7.88;2.10;;;10.40;99.90;;;;;;5035036;28;20045;-39
2023/04/25 09:38:46;;;;;;;13.88;2.63;;;10.60;99.90;;;;;;5033257;28;20530;-43
2023/04/25 09:41:12;;;;;;;8.77;2.30;;;10.90;99.90;;;;;;5034348;28;20052;-39
2023/04/25 09:43:39;;;;;;;12.05;2.35;;;11.00;99.90;;;;;;5026649;28;20053;-44
2023/04/25 09:46:09;;;;;;;9.98;2.42;;;11.00;99.90;;;;;;5027547;28;20122;-42
2023/04/25 09:48:35;;;;;;;6.43;1.52;;;10.60;99.90;;;;;;5033984;28;20410;-45
2023/04/25 09:51:13;;;;;;;8.20;2.35;;;10.20;99.90;;;;;;5032133;28;20053;-43
2023/04/25 09:53:50;;;;;;;5.93;2.40;;;10.10;99.90;;;;;;5033448;28;20406;-38
2023/04/25 09:56:16;;;;;;;7.53;1.98;;;10.00;99.90;;;;;;5034496;28;20045;-43
2023/04/25 09:58:42;;;;;;;11.45;2.00;;;10.10;99.90;;;;;;5031493;28;20625;-38
2023/04/25 10:01:11;;;;;;;11.63;1.75;;;10.10;99.90;;;;;;5029246;28;20048;-43
2023/04/25 10:03:42;;;;;;;10.27;1.85;;;10.20;99.90;;;;;;5034970;28;20065;-42
2023/04/25 10:06:11;;;;;;;8.30;1.75;;;10.10;99.90;;;;;;5035134;28;20052;-40
2023/04/25 10:08:38;;;;;;;4.95;1.67;;;10.20;99.90;;;;;;5024467;28;20049;-40
2023/04/25 10:11:07;;;;;;;5.60;1.67;;;10.30;99.90;;;;;;5031435;28;20053;-43
2023/04/25 10:13:34;;;;;;;6.40;1.55;;;10.50;99.90;;;;;;5023984;28;20049;-41
2023/04/25 10:16:04;;;;;;;5.40;1.70;;;10.80;99.90;;;;;;5027321;28;20458;-43
2023/04/25 10:18:32;;;;;;;7.55;2.03;;;11.00;99.90;;;;;;5026186;28;20857;-41
2023/04/25 10:21:03;;;;;;;5.68;1.45;;;11.10;99.90;;;;;;5043072;28;20052;-46
2023/04/25 10:23:31;;;;;;;6.75;1.60;;;11.30;99.90;;;;;;5021613;28;20052;-44
2023/04/25 10:25:57;;;;;;;9.55;2.20;;;11.60;99.90;;;;;;5027042;28;20419;-43
2023/04/25 10:28:23;;;;;;;5.20;1.73;;;11.80;99.90;;;;;;5026707;28;20124;-43
2023/04/25 10:31:03;;;;;;;9.88;1.95;;;11.90;99.90;;;;;;5005416;28;20045;-43
2023/04/25 10:33:38;;;;;;;12.55;2.60;;;12.00;99.90;;;;;;5048899;28;20110;-46
2023/04/25 10:36:17;;;;;;;6.90;1.88;;;12.30;99.90;;;;;;5024341;28;20080;-43
2023/04/25 10:38:44;;;;;;;8.70;1.98;;;12.20;99.90;;;;;;5031212;28;20076;-42
2023/04/25 10:41:11;;;;;;;11.45;1.90;;;12.30;99.90;;;;;;5047238;28;20467;-47
2023/04/25 10:43:38;;;;;;;9.35;2.22;;;12.30;99.90;;;;;;5032566;28;20908;-43
2023/04/25 10:46:21;;;;;;;7.47;2.45;;;12.40;99.90;;;;;;5033030;28;20048;-42
2023/04/25 10:48:51;;;;;;;8.57;2.17;;;12.50;99.90;;;;;;5033949;28;20447;-40
2023/04/25 10:51:20;;;;;;;9.18;2.65;;;12.70;99.90;;;;;;5035564;28;20056;-37
2023/04/25 10:53:56;;;;;;;7.97;1.90;;;12.60;99.90;;;;;;5037823;28;20482;-38
2023/04/25 10:56:43;;;;;;;7.80;1.88;;;12.50;99.90;;;;;;5037308;28;20049;-37
2023/04/25 10:59:18;;;;;;;4.80;1.92;;;12.40;99.90;;;;;;5025809;28;20045;-39
2023/04/25 11:01:51;;;;;;;6.50;1.95;;;12.50;99.90;;;;;;5036664;28;20061;-44
2023/04/25 11:04:21;;;;;;;8.50;2.33;;;12.40;99.90;;;;;;5037730;28;20492;-37
2023/04/25 11:07:04;;;;;;;6.80;2.13;;;12.70;99.90;;;;;;5037496;28;20051;-37
2023/04/25 11:09:30;;;;;;;3.92;1.45;;;12.70;99.90;;;;;;5035981;28;20085;-47
2023/04/25 11:12:00;;;;;;;4.78;1.80;;;13.10;99.90;;;;;;5028227;28;20051;-48
2023/04/25 11:14:26;;;;;;;5.53;1.60;;;13.20;99.90;;;;;;5025040;28;20135;-44
2023/04/25 11:16:57;;;;;;;3.65;1.30;;;12.70;99.90;;;;;;5037825;28;20083;-39
2023/04/25 11:19:24;;;;;;;6.60;1.90;;;12.60;99.90;;;;;;5038485;28;20060;-41
2023/04/25 11:21:50;;;;;;;4.68;1.33;;;11.70;99.90;;;;;;5037502;28;20060;-46
2023/04/25 11:24:19;;;;;;;8.45;1.55;;;11.10;99.90;;;;;;5052580;28;20360;-43
2023/04/25 11:26:50;;;;;;;5.10;1.85;;;10.40;99.90;;;;;;5036776;28;20637;-37
2023/04/25 11:29:16;;;;;;;5.53;1.42;;;10.30;99.90;;;;;;5052838;28;20045;-45
2023/04/25 11:31:47;;;;;;;5.28;1.60;;;10.30;99.90;;;;;;5036593;28;20161;-40
2023/04/25 11:34:20;;;;;;;8.88;2.22;;;10.40;99.90;;;;;;5037357;28;20403;-39
2023/04/25 11:36:46;;;;;;;8.65;1.83;;;10.50;99.90;;;;;;5036481;28;20504;-42
2023/04/25 11:39:12;;;;;;;4.95;1.50;;;10.90;99.90;;;;;;5051493;28;20056;-44
2023/04/25 11:41:38;;;;;;;8.40;2.03;;;11.00;99.90;;;;;;5035129;28;20084;-45
2023/04/25 11:44:05;;;;;;;6.15;1.27;;;11.30;99.90;;;;;;5037462;28;20134;-39
2023/04/25 11:46:33;;;;;;;5.40;1.67;;;11.30;99.90;;;;;;5036358;28;20113;-47
2023/04/25 11:48:59;;;;;;;7.93;1.77;;;11.30;99.90;;;;;;5036855;28;20049;-42
2023/04/25 11:51:26;;;;;;;7.00;1.40;;;11.30;99.90;;;;;;5036201;28;20223;-42
2023/04/25 11:53:51;;;;;;;7.82;2.10;;;11.30;99.90;;;;;;5051542;28;20416;-45
2023/04/25 11:56:17;;;;;;;4.40;1.60;;;11.20;99.90;;;;;;5036610;28;20060;-37
2023/04/25 11:59:05;;;;;;;9.27;2.58;;;11.30;99.90;;;;;;5034545;28;20058;-37
2023/04/25 12:01:35;;;;;;;8.35;2.08;;;11.60;99.90;;;;;;5033163;28;20613;-42
2023/04/25 12:04:19;;;;;;;8.48;2.05;;;11.90;99.90;;;;;;5036626;28;20119;-42
2023/04/25 12:06:48;;;;;;;;;;;12.10;99.90;;;;;;5036851;28;20048;-37
2023/04/25 12:09:15;;;;;;;7.95;2.28;;;12.40;99.90;;;;;;5036662;28;20029;-48
2023/04/25 12:11:49;;;;;;;6.97;2.33;;;12.50;99.90;;;;;;5036180;28;20057;-45
2023/04/25 12:14:32;;;;;;;10.18;2.20;;;12.20;99.90;;;;;;5036572;28;20053;-43
2023/04/25 12:17:00;;;;;;;6.65;2.00;;;12.00;99.90;;;;;;5051189;28;20098;-41
2023/04/25 12:19:26;;;;;;;8.27;2.72;;;11.60;99.90;;;;;;5036508;28;20215;-43
2023/04/25 12:21:52;;;;;;;10.45;1.98;;;11.50;99.90;;;;;;5035842;28;20840;-41
2023/04/25 12:24:25;;;;;;;9.20;2.25;;;11.30;99.90;;;;;;5035681;28;20057;-38
2023/04/25 12:27:00;;;;;;;8.13;2.58;;;11.10;99.90;;;;;;5034230;28;20052;-43
2023/04/25 12:29:28;;;;;;;11.02;2.50;;;10.90;99.90;;;;;;5030550;28;20373;-48
2023/04/25 12:31:55;;;;;;;9.32;2.17;;;10.80;99.90;;;;;;5031222;28;20080;-38
2023/04/25 12:34:21;;;;;;;11.63;2.70;;;10.90;99.90;;;;;;5051148;28;20225;-38
2023/04/25 12:36:48;;;;;;;6.82;1.80;;;10.90;99.90;;;;;;5035728;28;20103;-43
2023/04/25 12:39:21;;;;;;;7.20;2.00;;;10.90;99.90;;;;;;5035909;28;20053;-38
2023/04/25 12:41:47;;;;;;;;;;;10.90;99.90;;;;;;5035113;28;20412;-40
2023/04/25 12:44:13;;;;;;;10.10;2.03;;;11.20;99.90;;;;;;5024324;28;19931;-42
2023/04/25 12:46:40;;;;;;;6.20;1.35;;;11.50;99.90;;;;;;5031303;28;20037;-39
2023/04/25 12:49:07;;;;;;;9.35;1.90;;;11.90;99.90;;;;;;5036108;28;20060;-43